Terminal Aerodrome Forecast
Issued by NWS Sterling, VA

Home | Current Version | Previous Version | Text Only | Print | Product List | Glossary On
Versions: 1 2 3 4 5 6 7 8 9 10 11 12 13 14 15 16 17 18 19 20 21 22 23
000
FTUS41 KLWX 281700
TAFDCA
TAF
KDCA 281728Z 2818/2918 28018G27KT P6SM BKN050
     FM290100 31012KT P6SM BKN050
     FM290400 31009KT P6SM SCT090
     FM291500 31010KT P6SM SCT050=

USA.gov is the U.S. government's official web portal to all federal, state and local government web resources and services.